createdAt,value
2019-04-07T00:01:20.689Z,68.83
2019-04-07T00:03:50.428Z,60.13
2019-04-07T00:06:20.322Z,49.83
2019-04-07T00:08:49.794Z,65.50
2019-04-07T00:11:19.545Z,43.83
2019-04-07T00:13:49.879Z,35.50
2019-04-07T00:16:19.241Z,31.67
2019-04-07T00:18:48.562Z,27.60
2019-04-07T00:21:18.036Z,24.93
2019-04-07T00:23:47.893Z,21.57
2019-04-07T00:26:17.186Z,20.37
2019-04-07T00:28:46.417Z,19.50
2019-04-07T00:31:15.723Z,20.20
2019-04-07T00:33:45.397Z,20.70
2019-04-07T00:36:15.209Z,19.93
2019-04-07T00:38:45.004Z,20.33
2019-04-07T00:41:14.585Z,20.47
2019-04-07T00:43:44.532Z,17.80
2019-04-07T00:46:13.805Z,14.70
2019-04-07T00:48:44.025Z,15.67
2019-04-07T00:51:13.443Z,13.60
2019-04-07T00:53:42.706Z,15.77
2019-04-07T00:56:12.469Z,14.77
2019-04-07T00:58:42.434Z,14.67
2019-04-07T01:01:14.167Z,14.43
2019-04-07T01:03:43.462Z,13.37
2019-04-07T01:06:12.907Z,13.80
2019-04-07T01:08:42.517Z,21.27
2019-04-07T01:11:12.279Z,30.43
2019-04-07T01:13:42.769Z,16.27
2019-04-07T01:16:13.142Z,16.57
2019-04-07T01:18:42.575Z,15.93
2019-04-07T01:21:11.957Z,14.97
2019-04-07T01:23:41.491Z,14.03
2019-04-07T01:26:11.220Z,12.67
2019-04-07T01:28:41.723Z,15.50
2019-04-07T01:31:12.196Z,14.03
2019-04-07T01:33:41.608Z,15.70
2019-04-07T01:36:11.264Z,13.97
2019-04-07T01:38:41.098Z,14.90
2019-04-07T01:41:21.751Z,14.37
2019-04-07T01:43:57.473Z,15.17
2019-04-07T01:46:45.929Z,15.03
2019-04-07T01:49:31.346Z,14.57
2019-04-07T01:52:23.829Z,13.73
2019-04-07T01:55:15.482Z,14.03
2019-04-07T01:58:20.085Z,14.30
2019-04-07T02:01:11.994Z,14.73
2019-04-07T02:03:54.382Z,13.07
2019-04-07T02:06:48.782Z,14.13
2019-04-07T02:09:37.092Z,13.83
2019-04-07T02:12:24.770Z,12.80
2019-04-07T02:15:04.410Z,13.53
2019-04-07T02:17:54.295Z,14.80
2019-04-07T02:21:07.183Z,14.20
2019-04-07T02:23:54.988Z,15.83
2019-04-07T02:26:43.328Z,15.67
2019-04-07T02:29:32.439Z,17.43
2019-04-07T02:32:09.832Z,17.10
2019-04-07T02:34:45.330Z,21.53
2019-04-07T02:37:33.916Z,19.97
2019-04-07T02:40:13.750Z,18.07
2019-04-07T02:42:51.756Z,17.67
2019-04-07T02:45:38.894Z,19.80
2019-04-07T02:48:26.701Z,20.70
2019-04-07T02:51:13.542Z,19.10
2019-04-07T02:54:10.996Z,18.40
2019-04-07T02:57:18.866Z,20.00
2019-04-07T02:59:58.483Z,19.60
2019-04-07T03:02:45.672Z,21.37
2019-04-07T03:05:34.797Z,21.60
2019-04-07T03:08:32.265Z,21.40
2019-04-07T03:11:21.214Z,22.73
2019-04-07T03:14:09.418Z,24.67
2019-04-07T03:17:05.311Z,27.87
2019-04-07T03:19:49.291Z,28.27
2019-04-07T03:22:47.083Z,28.53
2019-04-07T03:25:24.311Z,31.13
2019-04-07T03:28:10.257Z,32.00
2019-04-07T03:31:06.081Z,47.03
2019-04-07T03:33:48.131Z,42.97
2019-04-07T03:37:09.888Z,38.67
2019-04-07T03:39:19.091Z,34.63
2019-04-07T03:42:10.750Z,27.50
2019-04-07T03:44:49.083Z,26.83
2019-04-07T03:47:37.678Z,27.27
2019-04-07T03:50:29.603Z,26.10
2019-04-07T03:53:16.297Z,25.30
2019-04-07T03:55:58.057Z,27.10
2019-04-07T03:58:43.013Z,38.43
2019-04-07T04:01:35.620Z,31.90
2019-04-07T04:04:31.499Z,26.83
2019-04-07T04:07:34.613Z,27.43
2019-04-07T04:10:22.295Z,27.77
2019-04-07T04:13:03.144Z,25.83
2019-04-07T04:15:51.659Z,30.83
2019-04-07T04:18:21.089Z,30.57
2019-04-07T04:20:50.393Z,31.50
2019-04-07T04:23:22.006Z,26.97
2019-04-07T04:25:51.246Z,25.80
2019-04-07T04:28:20.497Z,27.70
2019-04-07T04:30:50.690Z,28.83
2019-04-07T04:33:20.235Z,28.77
2019-04-07T04:35:49.558Z,28.90
2019-04-07T04:38:18.799Z,30.87
2019-04-07T04:40:48.128Z,30.07
2019-04-07T04:43:20.204Z,31.03
2019-04-07T04:45:50.414Z,31.47
2019-04-07T04:48:19.873Z,31.13
2019-04-07T04:50:49.285Z,30.63
2019-04-07T04:53:19.456Z,28.57
2019-04-07T04:55:49.504Z,29.63
2019-04-07T04:58:19.420Z,28.47
2019-04-07T05:00:48.840Z,27.37
2019-04-07T05:03:18.240Z,28.80
2019-04-07T05:05:47.770Z,28.97
2019-04-07T05:08:17.574Z,29.73
2019-04-07T05:10:47.306Z,28.00
2019-04-07T05:13:17.007Z,28.03
2019-04-07T05:15:46.844Z,28.03
2019-04-07T05:18:16.601Z,27.57
2019-04-07T05:20:45.962Z,27.70
2019-04-07T05:23:15.256Z,26.00
2019-04-07T05:25:44.949Z,26.50
2019-04-07T05:28:14.276Z,25.33
2019-04-07T05:30:43.596Z,24.60
2019-04-07T05:33:13.977Z,24.30
2019-04-07T05:35:44.285Z,23.67
2019-04-07T05:38:13.621Z,23.10
2019-04-07T05:40:43.288Z,23.33
2019-04-07T05:43:12.651Z,21.23
2019-04-07T05:45:42.026Z,22.13
2019-04-07T05:48:11.205Z,21.27
2019-04-07T05:50:41.063Z,22.37
2019-04-07T05:53:13.438Z,21.83
2019-04-07T05:55:41.363Z,22.10
2019-04-07T05:58:10.681Z,25.00
2019-04-07T06:00:40.503Z,22.17
2019-04-07T06:03:11.193Z,20.50
2019-04-07T06:05:40.974Z,19.83
2019-04-07T06:08:22.394Z,21.30
2019-04-07T06:10:41.457Z,19.73
2019-04-07T06:13:12.935Z,20.07
2019-04-07T06:15:41.804Z,18.17
2019-04-07T06:18:11.783Z,17.90
2019-04-07T06:20:44.109Z,18.80
2019-04-07T06:23:12.855Z,18.83
2019-04-07T06:25:44.012Z,19.07
2019-04-07T06:28:16.226Z,19.83
2019-04-07T06:30:46.246Z,15.63
2019-04-07T06:33:15.665Z,14.60
2019-04-07T06:35:47.274Z,14.87
2019-04-07T06:38:16.635Z,16.77
2019-04-07T06:40:46.178Z,17.70
2019-04-07T06:43:15.669Z,15.97
2019-04-07T06:45:54.162Z,18.17
2019-04-07T06:48:23.559Z,19.50
2019-04-07T06:51:11.853Z,19.83
2019-04-07T06:54:12.437Z,18.13
2019-04-07T06:57:04.349Z,18.03
2019-04-07T06:59:47.179Z,17.73
2019-04-07T07:02:40.651Z,17.60
2019-04-07T07:05:27.887Z,18.73
2019-04-07T07:08:10.013Z,17.23
2019-04-07T07:10:57.346Z,18.00
2019-04-07T07:13:36.736Z,18.40
2019-04-07T07:16:24.913Z,18.80
2019-04-07T07:19:11.947Z,19.20
2019-04-07T07:22:13.160Z,21.53
2019-04-07T07:24:40.236Z,21.33
2019-04-07T07:27:11.378Z,22.73
2019-04-07T07:29:40.979Z,20.37
2019-04-07T07:32:10.450Z,19.07
2019-04-07T07:34:42.255Z,37.20
2019-04-07T07:37:11.697Z,32.37
2019-04-07T07:39:42.624Z,49.20
2019-04-07T07:42:12.405Z,42.50
2019-04-07T07:44:41.819Z,46.47
2019-04-07T07:47:11.875Z,19.57
2019-04-07T07:49:42.315Z,39.37
2019-04-07T07:52:12.538Z,21.50
2019-04-07T07:54:42.934Z,16.97
2019-04-07T07:57:13.370Z,17.20
2019-04-07T07:59:43.217Z,17.43
2019-04-07T08:02:14.635Z,90.27
2019-04-07T08:04:43.642Z,79.17
2019-04-07T08:07:15.452Z,41.70
2019-04-07T08:09:44.479Z,21.33
2019-04-07T08:12:13.931Z,17.77
2019-04-07T08:14:43.826Z,17.73
2019-04-07T08:17:13.716Z,18.60
2019-04-07T08:19:44.509Z,17.60
2019-04-07T08:22:25.314Z,20.07
2019-04-07T08:24:45.597Z,21.63
2019-04-07T08:27:16.311Z,15.80
2019-04-07T08:29:46.248Z,18.03
2019-04-07T08:32:16.492Z,17.37
2019-04-07T08:34:45.965Z,14.10
2019-04-07T08:37:16.224Z,15.03
2019-04-07T08:39:45.716Z,14.57
2019-04-07T08:42:18.598Z,18.00
2019-04-07T08:44:46.284Z,16.40
2019-04-07T08:47:20.030Z,15.13
2019-04-07T08:49:47.078Z,15.07
2019-04-07T08:52:17.430Z,16.77
2019-04-07T08:54:50.398Z,18.30
2019-04-07T08:57:18.245Z,16.03
2019-04-07T08:59:48.456Z,17.87
2019-04-07T09:02:19.187Z,16.07
2019-04-07T09:04:51.273Z,13.97
2019-04-07T09:07:22.491Z,354.00
2019-04-07T09:09:51.416Z,158.20
2019-04-07T09:12:21.775Z,28.90
2019-04-07T09:14:51.458Z,14.90
2019-04-07T09:17:45.946Z,26.50
2019-04-07T09:20:40.276Z,18.30
2019-04-07T09:23:25.680Z,21.90
2019-04-07T09:26:12.513Z,38.43
2019-04-07T09:29:09.624Z,38.80
2019-04-07T09:32:00.088Z,20.17
2019-04-07T09:34:48.151Z,32.43
2019-04-07T09:37:29.309Z,24.70
2019-04-07T09:40:18.541Z,39.90
2019-04-07T09:42:57.399Z,17.77
2019-04-07T09:45:44.714Z,22.70
2019-04-07T09:48:29.271Z,17.67
2019-04-07T09:51:16.565Z,15.97
2019-04-07T09:54:10.052Z,14.43
2019-04-07T09:57:12.711Z,15.13
2019-04-07T10:00:00.473Z,18.57
2019-04-07T10:02:46.943Z,19.80
2019-04-07T10:05:53.737Z,17.27
2019-04-07T10:08:54.329Z,14.13
2019-04-07T10:11:42.464Z,16.63
2019-04-07T10:14:30.810Z,30.77
2019-04-07T10:17:29.862Z,14.33
2019-04-07T10:20:17.949Z,13.10
2019-04-07T10:22:55.598Z,21.47
2019-04-07T10:25:30.134Z,17.53
2019-04-07T10:28:22.400Z,14.37
2019-04-07T10:31:06.433Z,16.40
2019-04-07T10:33:53.878Z,14.17
2019-04-07T10:36:29.818Z,13.77
2019-04-07T10:39:18.664Z,17.00
2019-04-07T10:41:55.297Z,71.30
2019-04-07T10:44:35.819Z,12.57
2019-04-07T10:47:19.438Z,13.00
2019-04-07T10:50:06.886Z,9.77
2019-04-07T10:52:51.432Z,10.50
2019-04-07T10:55:58.004Z,13.80
2019-04-07T10:58:44.419Z,19.97
2019-04-07T11:01:36.240Z,21.70
2019-04-07T11:04:23.804Z,11.47
2019-04-07T11:07:05.203Z,12.90
2019-04-07T11:09:52.161Z,11.27
2019-04-07T11:12:35.724Z,12.23
2019-04-07T11:15:33.017Z,10.43
2019-04-07T11:18:21.346Z,12.17
2019-04-07T11:21:09.731Z,12.13
2019-04-07T11:23:58.878Z,15.37
2019-04-07T11:26:48.523Z,14.33
2019-04-07T11:29:25.130Z,23.00
2019-04-07T11:32:03.828Z,13.33
2019-04-07T11:34:53.028Z,27.77
2019-04-07T11:37:50.564Z,18.50
2019-04-07T11:40:44.506Z,27.13
2019-04-07T11:43:36.922Z,23.40
2019-04-07T11:46:16.489Z,25.73
2019-04-07T11:48:51.462Z,18.27
2019-04-07T11:51:46.755Z,11.90
2019-04-07T11:54:51.088Z,17.20
2019-04-07T11:57:30.180Z,18.40
2019-04-07T12:00:28.081Z,23.93
2019-04-07T12:03:15.089Z,14.57
2019-04-07T12:05:52.505Z,21.50
2019-04-07T12:08:56.010Z,10.53
2019-04-07T12:11:40.763Z,10.40
2019-04-07T12:14:28.786Z,10.63
2019-04-07T12:17:32.995Z,11.83
2019-04-07T12:20:36.375Z,17.20
2019-04-07T12:23:16.282Z,11.80
2019-04-07T12:26:05.126Z,16.90
2019-04-07T12:29:07.986Z,10.93
2019-04-07T12:32:08.599Z,11.37
2019-04-07T12:35:01.279Z,11.33
2019-04-07T12:37:49.565Z,11.17
2019-04-07T12:40:30.651Z,12.40
2019-04-07T12:43:07.341Z,12.23
2019-04-07T12:45:42.764Z,12.63
2019-04-07T12:48:19.989Z,11.23
2019-04-07T12:50:58.698Z,11.23
2019-04-07T12:53:53.275Z,11.33
2019-04-07T12:56:39.233Z,11.87
2019-04-07T12:59:28.271Z,11.50
2019-04-07T13:02:08.404Z,11.17
2019-04-07T13:04:56.114Z,10.47
2019-04-07T13:08:00.439Z,11.80
2019-04-07T13:10:48.016Z,11.10
2019-04-07T13:13:48.869Z,12.63
2019-04-07T13:16:29.508Z,10.93
2019-04-07T13:19:16.655Z,13.20
2019-04-07T13:22:17.253Z,11.07
2019-04-07T13:24:58.991Z,11.73
2019-04-07T13:27:53.176Z,12.03
2019-04-07T13:30:59.974Z,10.93
2019-04-07T13:33:48.317Z,12.10
2019-04-07T13:36:51.002Z,13.17
2019-04-07T13:39:30.377Z,12.77
2019-04-07T13:42:07.835Z,12.27
2019-04-07T13:45:14.078Z,13.63
2019-04-07T13:47:54.592Z,12.83
2019-04-07T13:50:49.187Z,11.00
2019-04-07T13:53:36.771Z,10.70
2019-04-07T13:56:21.992Z,11.33
2019-04-07T13:59:11.172Z,12.10
2019-04-07T14:02:01.903Z,11.47
2019-04-07T14:04:56.303Z,11.43
2019-04-07T14:07:45.017Z,14.80
2019-04-07T14:10:27.452Z,10.70
2019-04-07T14:13:22.163Z,10.93
2019-04-07T14:16:09.622Z,10.53
2019-04-07T14:18:57.001Z,11.83
2019-04-07T14:21:57.745Z,13.57
2019-04-07T14:24:44.775Z,22.67
2019-04-07T14:27:36.244Z,13.10
2019-04-07T14:30:23.387Z,14.03
2019-04-07T14:33:01.155Z,11.20
2019-04-07T14:35:39.322Z,11.33
2019-04-07T14:38:33.464Z,9.90
2019-04-07T14:41:12.566Z,10.60
2019-04-07T14:43:59.974Z,12.20
2019-04-07T14:46:51.236Z,11.07
2019-04-07T14:49:39.674Z,10.53
2019-04-07T14:52:37.195Z,25.13
2019-04-07T14:55:20.674Z,33.87
2019-04-07T14:58:12.971Z,25.77
2019-04-07T15:01:08.027Z,25.47
2019-04-07T15:03:36.331Z,12.07
2019-04-07T15:06:06.572Z,11.60
2019-04-07T15:09:01.190Z,10.80
2019-04-07T15:12:01.604Z,11.23
2019-04-07T15:14:32.879Z,10.73
2019-04-07T15:17:02.439Z,14.70
2019-04-07T15:19:33.918Z,15.93
2019-04-07T15:22:04.485Z,26.27
2019-04-07T15:24:35.887Z,14.93
2019-04-07T15:27:06.735Z,17.00
2019-04-07T15:29:42.148Z,11.10
2019-04-07T15:32:07.883Z,14.70
2019-04-07T15:34:39.555Z,16.77
2019-04-07T15:37:09.932Z,12.60
2019-04-07T15:39:39.630Z,17.40
2019-04-07T15:42:10.283Z,57.20
2019-04-07T15:44:41.566Z,42.90
2019-04-07T15:47:11.370Z,19.30
2019-04-07T15:49:40.722Z,18.93
2019-04-07T15:52:10.425Z,20.93
2019-04-07T15:54:40.526Z,17.37
2019-04-07T15:57:10.067Z,17.90
2019-04-07T15:59:42.087Z,21.20
2019-04-07T16:02:11.306Z,21.63
2019-04-07T16:04:41.843Z,22.93
2019-04-07T16:07:12.139Z,23.67
2019-04-07T16:09:51.039Z,20.70
2019-04-07T16:12:13.373Z,18.90
2019-04-07T16:14:46.481Z,16.53
2019-04-07T16:17:13.884Z,16.17
2019-04-07T16:19:47.697Z,16.00
2019-04-07T16:22:15.419Z,19.80
2019-04-07T16:24:45.157Z,19.27
2019-04-07T16:27:15.129Z,17.63
2019-04-07T16:29:46.185Z,25.03
2019-04-07T16:32:16.470Z,28.70
2019-04-07T16:34:46.351Z,31.17
2019-04-07T16:37:15.976Z,36.47
2019-04-07T16:39:45.719Z,25.43
2019-04-07T16:42:15.435Z,16.00
2019-04-07T16:44:44.882Z,14.63
2019-04-07T16:47:21.042Z,14.67
2019-04-07T16:49:48.812Z,17.77
2019-04-07T16:52:16.606Z,18.57
2019-04-07T16:54:45.965Z,19.63
2019-04-07T16:57:15.379Z,20.63
2019-04-07T16:59:44.714Z,33.10
2019-04-07T17:02:15.578Z,38.77
2019-04-07T17:04:45.175Z,38.90
2019-04-07T17:07:16.602Z,33.07
2019-04-07T17:09:45.396Z,25.57
2019-04-07T17:12:14.995Z,26.23
2019-04-07T17:14:44.817Z,23.63
2019-04-07T17:17:18.353Z,25.90
2019-04-07T17:19:45.704Z,29.10
2019-04-07T17:22:16.718Z,40.13
2019-04-07T17:24:46.141Z,28.13
2019-04-07T17:27:16.111Z,25.83
2019-04-07T17:29:45.959Z,23.63
2019-04-07T17:32:16.875Z,26.80
2019-04-07T17:34:46.580Z,29.90
2019-04-07T17:37:17.408Z,29.33
2019-04-07T17:39:51.822Z,30.13
2019-04-07T17:42:25.611Z,28.73
2019-04-07T17:45:26.431Z,31.60
2019-04-07T17:48:17.280Z,31.03
2019-04-07T17:51:07.328Z,46.03
2019-04-07T17:53:58.946Z,36.27
2019-04-07T17:56:53.802Z,28.50
2019-04-07T17:59:30.315Z,62.20
2019-04-07T18:02:10.877Z,90.93
2019-04-07T18:05:14.787Z,64.60
2019-04-07T18:07:56.434Z,73.17
2019-04-07T18:10:44.842Z,180.60
2019-04-07T18:13:41.984Z,97.63
2019-04-07T18:16:26.676Z,79.73
2019-04-07T18:19:18.637Z,70.27
2019-04-07T18:22:08.164Z,59.10
2019-04-07T18:24:51.723Z,54.50
2019-04-07T18:27:28.355Z,49.00
2019-04-07T18:30:14.569Z,200.63
2019-04-07T18:33:16.344Z,193.13
2019-04-07T18:36:05.107Z,163.23
2019-04-07T18:38:49.694Z,63.47
2019-04-07T18:41:36.303Z,77.87
2019-04-07T18:44:25.178Z,69.33
2019-04-07T18:47:15.099Z,100.50
2019-04-07T18:50:10.557Z,111.40
2019-04-07T18:52:49.266Z,144.43
2019-04-07T18:55:50.389Z,101.73
2019-04-07T18:58:34.382Z,88.40
2019-04-07T19:01:31.966Z,92.50
2019-04-07T19:04:17.019Z,70.57
2019-04-07T19:07:07.764Z,46.20
2019-04-07T19:10:06.443Z,49.40
2019-04-07T19:12:43.158Z,77.07
2019-04-07T19:15:29.856Z,70.87
2019-04-07T19:18:21.206Z,86.23
2019-04-07T19:21:16.214Z,81.43
2019-04-07T19:24:11.589Z,114.60
2019-04-07T19:26:54.443Z,534.20
2019-04-07T19:29:28.622Z,279.70
2019-04-07T19:32:29.239Z,104.43
2019-04-07T19:35:34.407Z,47.30
2019-04-07T19:38:23.566Z,47.00
2019-04-07T19:41:02.750Z,56.33
2019-04-07T19:44:06.418Z,76.03
2019-04-07T19:46:53.131Z,101.30
2019-04-07T19:49:47.670Z,121.37
2019-04-07T19:52:42.840Z,60.00
2019-04-07T19:55:30.708Z,65.77
2019-04-07T19:58:08.274Z,63.60
2019-04-07T20:01:08.831Z,78.67
2019-04-07T20:04:00.011Z,71.37
2019-04-07T20:06:47.123Z,66.10
2019-04-07T20:09:23.582Z,59.47
2019-04-07T20:12:06.690Z,62.37
2019-04-07T20:15:09.114Z,58.83
2019-04-07T20:17:54.931Z,58.93
2019-04-07T20:20:53.579Z,46.17
2019-04-07T20:23:39.345Z,49.17
2019-04-07T20:26:37.021Z,48.20
2019-04-07T20:29:13.783Z,42.10
2019-04-07T20:32:00.971Z,38.07
2019-04-07T20:34:52.672Z,41.53
2019-04-07T20:38:02.134Z,42.03
2019-04-07T20:40:44.456Z,36.27
2019-04-07T20:43:23.551Z,34.23
2019-04-07T20:46:21.549Z,57.03
2019-04-07T20:49:10.923Z,59.17
2019-04-07T20:51:54.312Z,52.23
2019-04-07T20:54:51.174Z,44.03
2019-04-07T20:57:42.672Z,33.87
2019-04-07T21:00:37.152Z,30.53
2019-04-07T21:03:38.011Z,30.27
2019-04-07T21:06:30.072Z,26.93
2019-04-07T21:09:18.292Z,28.80
2019-04-07T21:12:10.470Z,28.77
2019-04-07T21:15:16.859Z,27.37
2019-04-07T21:17:46.873Z,39.00
2019-04-07T21:20:41.994Z,37.87
2019-04-07T21:23:30.209Z,35.13
2019-04-07T21:26:10.040Z,32.47
2019-04-07T21:28:44.803Z,33.10
2019-04-07T21:31:33.118Z,32.87
2019-04-07T21:34:10.914Z,36.50
2019-04-07T21:37:16.220Z,37.40
2019-04-07T21:40:14.261Z,31.63
2019-04-07T21:43:02.814Z,29.07
2019-04-07T21:45:53.347Z,30.00
2019-04-07T21:48:58.050Z,31.17
2019-04-07T21:51:49.427Z,28.83
2019-04-07T21:54:39.129Z,27.57
2019-04-07T21:57:30.651Z,28.77
2019-04-07T22:00:31.607Z,24.53
2019-04-07T22:03:18.967Z,26.30
2019-04-07T22:06:17.738Z,23.97
2019-04-07T22:08:54.210Z,24.93
2019-04-07T22:11:26.718Z,26.17
2019-04-07T22:13:55.369Z,27.90
2019-04-07T22:16:25.536Z,31.73
2019-04-07T22:18:54.965Z,35.33
2019-04-07T22:21:24.313Z,33.53
2019-04-07T22:23:54.211Z,24.83
2019-04-07T22:26:23.978Z,23.50
2019-04-07T22:28:53.637Z,22.57
2019-04-07T22:31:31.377Z,24.07
2019-04-07T22:34:02.341Z,23.13
2019-04-07T22:36:31.655Z,23.10
2019-04-07T22:39:02.412Z,23.60
2019-04-07T22:41:31.801Z,23.40
2019-04-07T22:44:01.042Z,23.07
2019-04-07T22:46:31.059Z,21.63
2019-04-07T22:49:00.902Z,21.77
2019-04-07T22:51:30.670Z,21.13
2019-04-07T22:54:00.358Z,22.00
2019-04-07T22:56:29.894Z,22.20
2019-04-07T22:58:59.147Z,23.30
2019-04-07T23:01:29.261Z,29.77
2019-04-07T23:03:58.712Z,34.63
2019-04-07T23:06:28.700Z,31.40
2019-04-07T23:08:58.233Z,29.13
2019-04-07T23:11:27.857Z,29.13
2019-04-07T23:13:57.185Z,30.23
2019-04-07T23:16:27.594Z,28.30
2019-04-07T23:18:56.897Z,27.97
2019-04-07T23:21:26.751Z,27.23
2019-04-07T23:23:56.232Z,28.97
2019-04-07T23:26:26.405Z,28.13
2019-04-07T23:28:56.230Z,27.30
2019-04-07T23:31:26.293Z,26.67
2019-04-07T23:33:58.643Z,26.43
2019-04-07T23:36:28.563Z,27.57
2019-04-07T23:38:58.044Z,26.50
2019-04-07T23:41:27.775Z,26.83
2019-04-07T23:43:57.115Z,26.83
2019-04-07T23:46:28.157Z,26.07
2019-04-07T23:48:58.128Z,28.27
2019-04-07T23:51:27.661Z,28.00
2019-04-07T23:54:14.266Z,28.40
2019-04-07T23:56:44.673Z,28.23
2019-04-07T23:59:14.650Z,28.80
